Airport Name : Erzincan

Other Name : Erzincan

ICAO : LTCD

IATA : ERC

FAA :

Latitude : 39.710203

Longitude : 39.527003

Country : Turkey

Local Date and Time : 28 Feb 2021 15:35

 

TAF (Terminal Aerodrome Forecast)

TAF LTCD 281040Z 2812/2821 VRB02KT CAVOK

 

METAR (METeorological Aerodrome Report)

LTCD 281150Z 24006KT 210V320 CAVOK 12/M07 Q1015 NOSIG

LTCD 281050Z VRB03KT CAVOK 10/M07 Q1015 NOSIG

LTCD 280950Z VRB03KT CAVOK 09/M06 Q1016 NOSIG

LTCD 280850Z VRB02KT CAVOK 07/M06 Q1017 NOSIG

To Charter a Jet Click here.